Time;durP1;ratioP1;P1;durP2;ratioP2;P2;SDS_P1;SDS_P2;PMS_P1;PMS_P2;Temp;Humidity;BMP_temperature;BMP_pressure;BME280_temperature;BME280_humidity;BME280_pressure;Samples;Min_cycle;Max_cycle;Signal;HPM_P1;HPM_P2
2023/03/09 00:01:27;;;;;;;4.28;0.60;;;16.10;55.50;;;;;;2411149;55;21379;-75
2023/03/09 00:03:54;;;;;;;3.35;0.40;;;16.00;54.80;;;;;;2462946;55;20981;-75
2023/03/09 00:06:21;;;;;;;2.03;0.30;;;15.90;54.50;;;;;;2323268;55;20966;-75
2023/03/09 00:08:47;;;;;;;0.77;0.30;;;15.70;54.30;;;;;;2281524;55;20977;-75
2023/03/09 00:11:13;;;;;;;1.08;0.30;;;15.60;54.30;;;;;;2280889;55;20977;-75
2023/03/09 00:13:40;;;;;;;1.42;0.28;;;15.50;54.50;;;;;;2293369;55;21018;-74
2023/03/09 00:16:17;;;;;;;2.20;0.47;;;15.40;54.60;;;;;;2280954;55;20954;-75
2023/03/09 00:18:43;;;;;;;1.10;0.30;;;15.20;54.70;;;;;;2288450;55;21037;-74
2023/03/09 00:21:14;;;;;;;1.40;0.30;;;15.20;54.60;;;;;;2438696;55;20985;-74
2023/03/09 00:23:41;;;;;;;0.68;0.25;;;15.10;54.70;;;;;;2486386;55;21676;-74
2023/03/09 00:26:09;;;;;;;1.00;0.30;;;15.00;54.70;;;;;;2280903;55;21394;-74
2023/03/09 00:28:35;;;;;;;3.25;0.62;;;14.90;54.70;;;;;;2281484;55;21332;-74
2023/03/09 00:31:02;;;;;;;0.30;0.20;;;14.80;54.80;;;;;;2280862;55;21350;-74
2023/03/09 00:33:29;;;;;;;0.20;0.20;;;14.70;54.80;;;;;;2281436;55;21422;-74
2023/03/09 00:35:55;;;;;;;2.97;0.30;;;14.70;54.90;;;;;;2320197;55;21022;-75
2023/03/09 00:38:21;;;;;;;1.62;0.30;;;14.60;55.00;;;;;;2331541;55;21421;-76
2023/03/09 00:40:48;;;;;;;0.75;0.20;;;14.50;55.00;;;;;;2513398;54;21051;-76
2023/03/09 00:43:14;;;;;;;1.27;0.40;;;14.50;55.20;;;;;;2282353;55;21438;-76
2023/03/09 00:45:40;;;;;;;1.08;0.40;;;14.40;55.90;;;;;;2285975;56;20979;-76
2023/03/09 00:48:07;;;;;;;0.25;0.20;;;14.30;56.60;;;;;;2448290;55;20999;-75
2023/03/09 00:50:33;;;;;;;0.30;0.30;;;14.30;57.30;;;;;;2290770;55;20966;-76
2023/03/09 00:52:59;;;;;;;0.45;0.20;;;14.20;57.80;;;;;;2288564;56;21026;-75
2023/03/09 00:55:25;;;;;;;1.10;0.30;;;14.20;58.30;;;;;;2291430;55;21472;-76
2023/03/09 00:57:52;;;;;;;0.88;0.20;;;14.10;58.60;;;;;;2382301;55;21286;-75
2023/03/09 01:00:18;;;;;;;1.08;0.30;;;14.10;59.00;;;;;;2285556;55;21418;-75
2023/03/09 01:02:44;;;;;;;0.95;0.35;;;14.00;59.40;;;;;;2285882;56;21031;-75
2023/03/09 01:05:11;;;;;;;2.97;0.30;;;14.00;59.90;;;;;;2518690;55;21393;-74
2023/03/09 01:07:37;;;;;;;0.73;0.30;;;13.90;60.40;;;;;;2286056;55;20943;-75
2023/03/09 01:10:04;;;;;;;0.82;0.30;;;13.90;61.00;;;;;;2285727;55;21007;-75
2023/03/09 01:12:30;;;;;;;0.75;0.30;;;13.80;61.40;;;;;;2369268;55;21051;-76
2023/03/09 01:14:56;;;;;;;0.50;0.30;;;13.80;61.80;;;;;;2519428;55;21765;-76
2023/03/09 01:17:23;;;;;;;0.62;0.22;;;13.80;62.20;;;;;;2286085;55;20943;-76
2023/03/09 01:19:49;;;;;;;0.90;0.20;;;13.70;62.40;;;;;;2285943;56;20945;-76
2023/03/09 01:22:15;;;;;;;0.88;0.30;;;13.70;62.70;;;;;;2285107;56;21277;-76
2023/03/09 01:24:42;;;;;;;1.42;0.37;;;13.70;62.90;;;;;;2303841;55;20986;-76
2023/03/09 01:27:09;;;;;;;1.12;0.35;;;13.60;63.10;;;;;;2285233;55;20918;-76
2023/03/09 01:29:35;;;;;;;0.68;0.30;;;13.60;63.30;;;;;;2290438;54;20962;-76
2023/03/09 01:32:02;;;;;;;0.70;0.30;;;13.50;63.50;;;;;;2282720;55;21502;-76
2023/03/09 01:34:28;;;;;;;1.15;0.20;;;13.50;63.80;;;;;;2285557;55;20941;-76
2023/03/09 01:36:54;;;;;;;1.45;0.37;;;13.50;64.10;;;;;;2308032;56;20953;-76
2023/03/09 01:39:21;;;;;;;0.20;0.20;;;13.40;64.20;;;;;;2307374;56;21506;-76
2023/03/09 01:41:47;;;;;;;2.17;0.55;;;13.40;64.50;;;;;;2507965;53;21757;-75
2023/03/09 01:44:13;;;;;;;1.05;0.50;;;13.40;64.70;;;;;;2307228;56;21420;-75
2023/03/09 01:46:55;;;;;;;1.87;0.50;;;13.40;64.90;;;;;;2419666;54;20979;-75
2023/03/09 01:49:42;;;;;;;1.70;0.55;;;13.30;65.10;;;;;;2306721;54;21272;-76
2023/03/09 01:52:19;;;;;;;1.33;0.70;;;13.30;65.30;;;;;;2480875;53;20937;-76
2023/03/09 01:55:28;;;;;;;1.37;0.50;;;13.30;65.60;;;;;;2323561;54;21261;-75
2023/03/09 01:58:00;;;;;;;1.52;0.40;;;13.30;65.60;;;;;;2289847;55;20946;-75
2023/03/09 02:00:26;;;;;;;2.05;0.40;;;13.30;65.90;;;;;;2307691;55;21040;-75
2023/03/09 02:03:03;;;;;;;1.70;0.40;;;13.30;66.00;;;;;;2290303;55;21340;-74
2023/03/09 02:05:49;;;;;;;2.53;0.77;;;13.30;66.10;;;;;;2285381;56;20935;-76
2023/03/09 02:08:16;;;;;;;1.80;0.70;;;13.30;66.30;;;;;;2284573;56;20979;-75
2023/03/09 02:11:42;;;;;;;1.85;0.57;;;13.30;66.40;;;;;;2296944;55;20891;-75
2023/03/09 02:14:08;;;;;;;1.87;0.47;;;13.20;66.00;;;;;;2285085;55;20911;-75
2023/03/09 02:16:35;;;;;;;3.22;0.60;;;13.30;66.60;;;;;;2285027;55;20910;-75
2023/03/09 02:19:01;;;;;;;0.80;0.30;;;13.20;66.60;;;;;;2518889;55;20935;-75
2023/03/09 02:21:38;;;;;;;1.77;0.60;;;13.20;66.70;;;;;;2285238;56;21075;-75
2023/03/09 02:25:36;;;;;;;2.35;0.75;;;13.20;66.80;;;;;;2285142;56;20891;-75
2023/03/09 02:28:03;;;;;;;2.50;0.40;;;13.30;66.50;;;;;;2545527;54;21010;-76
2023/03/09 02:30:30;;;;;;;1.67;0.50;;;13.20;67.00;;;;;;2311666;56;20893;-75
2023/03/09 02:33:10;;;;;;;2.05;0.43;;;13.30;67.30;;;;;;2306329;56;20919;-76
2023/03/09 02:35:37;;;;;;;1.17;0.45;;;13.30;67.30;;;;;;2312793;55;20931;-75
2023/03/09 02:38:05;;;;;;;1.85;0.68;;;13.30;67.40;;;;;;2283964;55;20955;-76
2023/03/09 02:40:33;;;;;;;1.15;0.40;;;13.30;67.60;;;;;;2328310;55;21531;-76
2023/03/09 02:43:01;;;;;;;1.35;0.50;;;13.30;67.60;;;;;;2284579;55;20951;-76
2023/03/09 02:45:27;;;;;;;1.02;0.40;;;13.30;67.70;;;;;;2320979;55;20891;-76
2023/03/09 02:47:54;;;;;;;0.82;0.22;;;13.30;67.80;;;;;;2284484;56;21469;-76
2023/03/09 02:50:20;;;;;;;1.90;0.50;;;13.30;68.00;;;;;;2283890;55;20919;-75
2023/03/09 02:52:46;;;;;;;1.15;0.50;;;13.40;68.10;;;;;;2284939;55;20947;-76
2023/03/09 02:55:12;;;;;;;1.35;0.47;;;13.30;68.10;;;;;;2359248;55;21400;-75
2023/03/09 02:57:40;;;;;;;1.10;0.40;;;13.40;68.20;;;;;;2284083;56;21006;-75
2023/03/09 03:00:09;;;;;;;2.28;0.52;;;13.40;68.30;;;;;;2329030;55;21423;-76
2023/03/09 03:02:36;;;;;;;0.95;0.35;;;13.40;68.30;;;;;;2517977;54;21141;-75
2023/03/09 03:05:03;;;;;;;1.23;0.32;;;13.50;68.50;;;;;;2283863;56;21267;-76
2023/03/09 03:07:29;;;;;;;1.08;0.40;;;13.50;68.80;;;;;;2384542;55;20975;-75
2023/03/09 03:09:55;;;;;;;0.95;0.20;;;13.50;68.60;;;;;;2285011;55;21208;-76
2023/03/09 03:12:22;;;;;;;1.05;0.30;;;13.50;68.60;;;;;;2445031;55;21409;-75
2023/03/09 03:14:48;;;;;;;1.00;0.30;;;13.60;68.70;;;;;;2284115;56;20922;-75
2023/03/09 03:17:14;;;;;;;2.33;0.50;;;13.60;68.70;;;;;;2312305;55;21423;-75
2023/03/09 03:19:40;;;;;;;1.12;0.40;;;13.60;68.70;;;;;;2356484;55;20975;-76
2023/03/09 03:22:07;;;;;;;0.65;0.28;;;13.70;68.70;;;;;;2283448;56;20923;-76
2023/03/09 03:24:37;;;;;;;0.20;0.17;;;13.70;68.70;;;;;;2283810;56;20959;-75
2023/03/09 03:27:03;;;;;;;2.08;0.50;;;13.70;68.70;;;;;;2372398;54;20958;-76
2023/03/09 03:29:30;;;;;;;1.20;0.37;;;13.70;68.80;;;;;;2386158;55;20895;-76
2023/03/09 03:31:56;;;;;;;0.55;0.30;;;13.70;68.80;;;;;;2284449;55;21313;-76
2023/03/09 03:34:22;;;;;;;0.80;0.30;;;13.70;68.70;;;;;;2304087;55;21057;-75
2023/03/09 03:36:49;;;;;;;1.12;0.30;;;13.70;68.60;;;;;;2292278;55;20966;-75
2023/03/09 03:39:15;;;;;;;0.68;0.32;;;13.70;68.60;;;;;;2519149;54;21395;-75
2023/03/09 03:41:41;;;;;;;0.45;0.20;;;13.80;68.70;;;;;;2379846;54;20950;-75
2023/03/09 03:44:07;;;;;;;0.65;0.30;;;13.80;68.60;;;;;;2519755;54;20991;-75
2023/03/09 03:46:34;;;;;;;1.17;0.32;;;13.80;68.60;;;;;;2335265;54;21304;-76
2023/03/09 03:49:00;;;;;;;1.20;0.30;;;13.80;68.60;;;;;;2519631;54;20938;-75
2023/03/09 03:51:26;;;;;;;1.95;0.30;;;13.70;68.40;;;;;;2285822;56;20989;-75
2023/03/09 03:53:53;;;;;;;1.87;0.30;;;13.80;68.50;;;;;;2354907;54;20922;-75
2023/03/09 03:56:19;;;;;;;2.03;0.40;;;13.80;68.50;;;;;;2285214;55;20994;-75
2023/03/09 03:58:46;;;;;;;1.98;0.30;;;13.80;68.40;;;;;;2285664;56;20947;-75
2023/03/09 04:01:12;;;;;;;1.12;0.28;;;13.70;68.10;;;;;;2489681;54;21006;-75
2023/03/09 04:03:38;;;;;;;0.90;0.30;;;13.70;68.10;;;;;;2412762;54;21180;-75
2023/03/09 04:06:05;;;;;;;1.98;0.40;;;13.70;68.00;;;;;;2296433;54;20919;-75
2023/03/09 04:08:31;;;;;;;4.05;0.60;;;13.70;68.00;;;;;;2285589;55;20934;-75
2023/03/09 04:10:58;;;;;;;3.15;0.50;;;13.70;68.00;;;;;;2300217;54;20983;-75
2023/03/09 04:13:24;;;;;;;2.95;0.47;;;13.70;68.00;;;;;;2451292;54;21420;-75
2023/03/09 04:15:50;;;;;;;1.48;0.37;;;13.70;68.00;;;;;;2285931;55;21431;-76
2023/03/09 04:18:17;;;;;;;1.67;0.50;;;13.70;68.00;;;;;;2285435;55;21427;-76
2023/03/09 04:20:43;;;;;;;4.43;0.50;;;13.60;67.90;;;;;;2285893;55;20946;-75
2023/03/09 04:23:10;;;;;;;2.58;0.43;;;13.60;67.90;;;;;;2525162;54;21378;-76
2023/03/09 04:25:36;;;;;;;1.45;0.40;;;13.60;68.00;;;;;;2551696;54;20944;-75
2023/03/09 04:28:02;;;;;;;3.35;0.62;;;13.60;68.10;;;;;;2419995;54;21797;-76
2023/03/09 04:30:30;;;;;;;3.53;0.70;;;13.60;68.20;;;;;;2476060;54;20976;-75
2023/03/09 04:32:56;;;;;;;1.70;0.40;;;13.60;68.20;;;;;;2480719;54;21271;-76
2023/03/09 04:35:22;;;;;;;2.90;0.60;;;13.60;68.20;;;;;;2311885;55;21452;-75
2023/03/09 04:37:51;;;;;;;1.48;0.60;;;13.60;68.20;;;;;;2325998;54;21400;-75
2023/03/09 04:40:17;;;;;;;2.35;0.50;;;13.60;68.20;;;;;;2311583;55;21205;-75
2023/03/09 04:42:43;;;;;;;4.90;1.80;;;13.60;68.20;;;;;;2312323;56;20995;-75
2023/03/09 04:45:10;;;;;;;4.35;1.15;;;13.60;68.20;;;;;;2529623;54;21396;-75
2023/03/09 04:47:36;;;;;;;2.62;0.70;;;13.60;68.20;;;;;;2551592;54;20951;-75
2023/03/09 04:50:03;;;;;;;2.72;0.75;;;13.60;68.30;;;;;;2551959;54;21496;-75
2023/03/09 04:52:29;;;;;;;2.58;0.70;;;13.60;68.20;;;;;;2552143;54;20991;-75
2023/03/09 04:54:55;;;;;;;3.45;0.90;;;13.60;68.20;;;;;;2552529;54;20964;-76
2023/03/09 04:57:22;;;;;;;2.92;0.77;;;13.50;68.10;;;;;;2499495;54;20931;-75
2023/03/09 04:59:48;;;;;;;2.12;0.60;;;13.60;68.30;;;;;;2312531;55;21480;-76
2023/03/09 05:02:14;;;;;;;2.35;0.60;;;13.60;68.40;;;;;;2354896;54;20896;-76
2023/03/09 05:04:40;;;;;;;3.05;0.73;;;13.70;68.50;;;;;;2552261;54;20976;-76
2023/03/09 05:07:06;;;;;;;5.15;1.12;;;13.70;68.50;;;;;;2551614;54;21662;-75
2023/03/09 05:09:33;;;;;;;1.67;0.50;;;13.70;68.50;;;;;;2324707;54;20937;-75
2023/03/09 05:11:59;;;;;;;4.78;0.85;;;13.70;68.50;;;;;;2416110;55;21527;-75
2023/03/09 05:14:25;;;;;;;4.65;0.73;;;13.70;68.50;;;;;;2337473;54;21414;-76
2023/03/09 05:16:51;;;;;;;2.78;0.80;;;13.70;68.50;;;;;;2315146;55;21472;-76
2023/03/09 05:19:18;;;;;;;7.07;0.80;;;13.70;68.50;;;;;;2525395;54;20991;-75
2023/03/09 05:21:45;;;;;;;4.05;0.70;;;13.70;68.40;;;;;;2505125;54;21007;-75
2023/03/09 05:24:11;;;;;;;4.85;0.80;;;13.70;69.10;;;;;;2312311;56;20923;-75
2023/03/09 05:26:37;;;;;;;3.00;0.60;;;13.70;68.40;;;;;;2311965;56;20971;-76
2023/03/09 05:29:03;;;;;;;2.47;0.90;;;13.70;68.40;;;;;;2424773;54;20986;-75
2023/03/09 05:31:30;;;;;;;3.67;1.00;;;13.70;68.40;;;;;;2312163;56;21022;-75
2023/03/09 05:33:56;;;;;;;4.22;0.90;;;13.70;68.50;;;;;;2312211;56;20935;-76
2023/03/09 05:36:23;;;;;;;3.28;0.77;;;13.70;68.50;;;;;;2343993;54;20947;-76
2023/03/09 05:38:50;;;;;;;3.22;0.62;;;13.70;68.40;;;;;;2328558;54;20979;-76
2023/03/09 05:41:16;;;;;;;4.60;0.95;;;13.70;68.40;;;;;;2312458;55;20916;-75
2023/03/09 05:43:42;;;;;;;3.70;0.60;;;13.80;68.50;;;;;;2312785;56;21302;-75
2023/03/09 05:46:13;;;;;;;2.53;0.70;;;13.70;68.40;;;;;;2311940;56;20923;-76
2023/03/09 05:48:39;;;;;;;3.33;0.73;;;13.80;68.50;;;;;;2312090;56;21056;-75
2023/03/09 05:51:07;;;;;;;4.25;0.73;;;13.70;68.40;;;;;;2552138;54;20943;-75
2023/03/09 05:53:34;;;;;;;3.67;0.70;;;13.80;68.40;;;;;;2551852;54;21643;-75
2023/03/09 05:56:00;;;;;;;4.87;0.85;;;13.80;68.30;;;;;;2312297;56;21334;-76
2023/03/09 05:58:26;;;;;;;2.87;0.80;;;13.80;68.30;;;;;;2312408;56;21418;-75
2023/03/09 06:00:52;;;;;;;3.72;0.70;;;13.80;68.40;;;;;;2312038;55;21432;-75
2023/03/09 06:03:19;;;;;;;3.25;0.80;;;13.80;68.40;;;;;;2551518;54;21213;-76
2023/03/09 06:05:46;;;;;;;2.10;0.70;;;13.80;68.40;;;;;;2312961;56;20928;-75
2023/03/09 06:08:12;;;;;;;2.83;0.80;;;13.80;68.40;;;;;;2315999;54;20990;-76
2023/03/09 06:10:39;;;;;;;2.58;0.80;;;13.80;68.30;;;;;;2330000;54;21319;-75
2023/03/09 06:13:05;;;;;;;1.87;0.70;;;13.80;68.30;;;;;;2311940;56;20960;-75
2023/03/09 06:15:32;;;;;;;4.00;0.80;;;13.80;68.30;;;;;;2312221;56;21015;-75
2023/03/09 06:17:58;;;;;;;5.53;0.90;;;13.80;68.40;;;;;;2401120;54;21393;-76
2023/03/09 06:20:24;;;;;;;7.50;1.40;;;13.80;68.30;;;;;;2312463;55;20920;-75
2023/03/09 06:22:50;;;;;;;6.05;1.00;;;13.80;68.30;;;;;;2426567;54;20999;-75
2023/03/09 06:25:17;;;;;;;4.90;1.33;;;13.80;68.30;;;;;;2311945;56;21441;-76
2023/03/09 06:27:43;;;;;;;6.37;1.50;;;13.80;68.30;;;;;;2537466;54;21028;-77
2023/03/09 06:30:10;;;;;;;8.15;3.08;;;13.80;68.10;;;;;;2311950;55;21472;-76
2023/03/09 06:32:36;;;;;;;8.18;2.60;;;13.80;68.10;;;;;;2312075;55;20916;-75
2023/03/09 06:35:03;;;;;;;6.57;1.55;;;13.80;68.20;;;;;;2383734;54;21413;-75
2023/03/09 06:37:29;;;;;;;5.53;1.23;;;13.80;68.10;;;;;;2552105;54;21006;-75
2023/03/09 06:39:56;;;;;;;5.70;1.25;;;13.80;68.10;;;;;;2312248;55;20907;-76
2023/03/09 06:42:22;;;;;;;8.27;2.53;;;13.80;68.10;;;;;;2311916;56;20979;-76
2023/03/09 06:44:50;;;;;;;6.93;2.05;;;13.80;68.10;;;;;;2358839;54;20935;-76
2023/03/09 06:47:16;;;;;;;3.72;1.33;;;13.80;68.00;;;;;;2312267;55;21386;-75
2023/03/09 06:49:43;;;;;;;5.78;0.98;;;13.80;68.00;;;;;;2369086;54;21546;-75
2023/03/09 06:52:09;;;;;;;4.12;0.90;;;13.80;68.10;;;;;;2311937;55;21279;-76
2023/03/09 06:54:36;;;;;;;3.30;0.82;;;13.80;68.10;;;;;;2330583;54;20949;-77
2023/03/09 06:57:02;;;;;;;3.72;0.90;;;13.80;68.00;;;;;;2311898;55;21503;-76
2023/03/09 06:59:29;;;;;;;3.00;0.90;;;13.80;68.10;;;;;;2312361;56;20955;-76
2023/03/09 07:01:55;;;;;;;6.00;1.60;;;13.80;68.00;;;;;;2552042;54;21487;-76
2023/03/09 07:04:21;;;;;;;2.92;0.80;;;13.80;67.80;;;;;;2315390;54;20991;-76
2023/03/09 07:06:48;;;;;;;4.45;0.80;;;13.80;67.90;;;;;;2312616;55;20935;-75
2023/03/09 07:09:14;;;;;;;5.40;0.77;;;13.80;67.90;;;;;;2377538;54;20974;-76
2023/03/09 07:11:40;;;;;;;4.80;0.93;;;13.80;67.90;;;;;;2524421;54;21015;-77
2023/03/09 07:14:06;;;;;;;6.15;1.37;;;13.80;67.80;;;;;;2312008;55;21060;-76
2023/03/09 07:16:33;;;;;;;2.83;0.88;;;13.90;67.90;;;;;;2388495;54;20967;-76
2023/03/09 07:18:59;;;;;;;4.00;0.88;;;13.90;67.90;;;;;;2312137;56;20927;-76
2023/03/09 07:21:26;;;;;;;4.40;1.05;;;13.90;67.90;;;;;;2450736;54;20983;-76
2023/03/09 07:23:52;;;;;;;4.40;0.90;;;14.00;68.00;;;;;;2312440;56;21227;-76
2023/03/09 07:26:20;;;;;;;4.15;0.93;;;13.90;67.90;;;;;;2312107;55;21336;-76
2023/03/09 07:28:47;;;;;;;3.90;0.90;;;13.90;67.90;;;;;;2315861;54;20988;-75
2023/03/09 07:31:13;;;;;;;2.67;0.62;;;13.90;67.90;;;;;;2312215;56;20959;-76
2023/03/09 07:33:39;;;;;;;3.28;0.70;;;13.90;68.00;;;;;;2551900;54;20908;-75
2023/03/09 07:36:06;;;;;;;2.42;0.73;;;13.90;68.00;;;;;;2485742;54;21448;-75
2023/03/09 07:38:33;;;;;;;4.05;0.90;;;13.90;68.70;;;;;;2312517;56;20935;-77
2023/03/09 07:40:59;;;;;;;2.30;0.62;;;13.90;68.10;;;;;;2397648;54;21496;-75
2023/03/09 07:43:26;;;;;;;3.85;0.77;;;13.90;68.10;;;;;;2354215;54;20926;-76
2023/03/09 07:45:52;;;;;;;1.92;0.43;;;13.90;68.20;;;;;;2312570;55;21243;-76
2023/03/09 07:48:18;;;;;;;3.30;0.80;;;13.90;68.30;;;;;;2373364;54;20974;-75
2023/03/09 07:50:45;;;;;;;2.67;0.82;;;13.90;68.30;;;;;;2312392;56;21003;-76
2023/03/09 07:53:11;;;;;;;5.18;0.80;;;13.90;68.30;;;;;;2312120;56;21002;-76
2023/03/09 07:55:38;;;;;;;3.83;0.70;;;13.90;68.40;;;;;;2312342;56;21042;-76
2023/03/09 07:58:04;;;;;;;2.42;0.80;;;13.90;68.40;;;;;;2389988;54;20999;-75
2023/03/09 08:00:32;;;;;;;2.62;0.80;;;13.90;68.40;;;;;;2312374;56;21082;-75
2023/03/09 08:02:58;;;;;;;5.07;0.85;;;13.90;68.40;;;;;;2524926;54;20987;-76
2023/03/09 08:05:24;;;;;;;5.40;1.10;;;13.90;68.40;;;;;;2552963;54;21496;-76
2023/03/09 08:07:51;;;;;;;3.12;0.82;;;13.90;68.50;;;;;;2328839;54;21075;-75
2023/03/09 08:10:17;;;;;;;3.50;0.93;;;13.90;68.50;;;;;;2312312;56;21483;-76
2023/03/09 08:12:47;;;;;;;2.37;0.70;;;14.00;68.70;;;;;;2384614;54;20936;-75
2023/03/09 08:15:13;;;;;;;3.97;0.80;;;13.90;68.50;;;;;;2535704;54;21007;-76
2023/03/09 08:17:39;;;;;;;4.07;0.88;;;14.00;68.60;;;;;;2335027;54;20916;-76
2023/03/09 08:20:09;;;;;;;3.15;0.82;;;13.90;68.50;;;;;;2312302;55;20943;-75
2023/03/09 08:22:36;;;;;;;5.03;1.10;;;14.00;68.60;;;;;;2312234;55;20967;-76
2023/03/09 08:25:03;;;;;;;3.62;0.90;;;14.00;68.60;;;;;;2348272;54;21392;-75
2023/03/09 08:27:29;;;;;;;4.97;1.10;;;14.00;68.50;;;;;;2312508;56;20936;-75
2023/03/09 08:29:56;;;;;;;3.60;1.08;;;14.00;68.60;;;;;;2318599;54;20935;-75
2023/03/09 08:32:25;;;;;;;5.05;1.50;;;14.00;68.60;;;;;;2312485;56;21259;-75
2023/03/09 08:34:54;;;;;;;4.55;1.25;;;14.10;68.70;;;;;;2367413;54;21019;-75
2023/03/09 08:37:21;;;;;;;5.62;1.80;;;14.10;68.50;;;;;;2312036;56;21453;-76
2023/03/09 08:39:49;;;;;;;2.65;0.90;;;14.00;68.50;;;;;;2424592;54;21011;-74
2023/03/09 08:42:15;;;;;;;6.05;1.42;;;14.10;68.50;;;;;;2315399;54;20991;-77
2023/03/09 08:44:42;;;;;;;4.70;1.00;;;14.10;68.50;;;;;;2311708;56;21490;-75
2023/03/09 08:47:08;;;;;;;2.62;0.80;;;14.10;68.50;;;;;;2312316;56;20980;-74
2023/03/09 08:49:34;;;;;;;5.12;1.10;;;14.10;68.40;;;;;;2348092;54;20923;-76
2023/03/09 08:52:00;;;;;;;3.62;1.05;;;14.10;68.50;;;;;;2311537;55;20916;-75
2023/03/09 08:54:27;;;;;;;4.65;0.80;;;14.10;68.50;;;;;;2334715;55;21215;-77
2023/03/09 08:56:53;;;;;;;3.53;0.82;;;14.10;68.60;;;;;;2285446;56;20995;-76
2023/03/09 08:59:19;;;;;;;6.30;1.10;;;14.10;68.60;;;;;;2306498;55;21550;-77
2023/03/09 09:01:45;;;;;;;4.43;0.93;;;14.10;68.60;;;;;;2506162;55;21292;-76
2023/03/09 09:04:12;;;;;;;4.82;0.95;;;14.10;68.60;;;;;;2285353;56;20991;-76
2023/03/09 09:06:38;;;;;;;3.50;0.98;;;14.10;68.70;;;;;;2413349;55;20927;-77
2023/03/09 09:09:04;;;;;;;4.55;1.17;;;14.10;68.70;;;;;;2475451;54;21464;-76
2023/03/09 09:11:32;;;;;;;4.75;0.95;;;14.10;68.80;;;;;;2285631;56;21391;-77
2023/03/09 09:13:59;;;;;;;3.62;1.05;;;14.10;68.80;;;;;;2333596;55;20990;-75
2023/03/09 09:16:28;;;;;;;4.07;1.00;;;14.10;68.80;;;;;;2286166;56;20998;-77
2023/03/09 09:18:55;;;;;;;3.53;0.80;;;14.10;68.80;;;;;;2285458;56;21356;-76
2023/03/09 09:21:21;;;;;;;4.05;0.80;;;14.10;68.90;;;;;;2297102;54;21335;-75
2023/03/09 09:23:49;;;;;;;4.12;1.00;;;14.10;68.90;;;;;;2311164;54;20998;-76
2023/03/09 09:26:15;;;;;;;4.00;0.93;;;14.20;69.00;;;;;;2364221;54;21034;-75
2023/03/09 09:28:41;;;;;;;3.37;0.73;;;14.20;68.90;;;;;;2285639;55;20994;-76
2023/03/09 09:31:09;;;;;;;6.10;1.00;;;14.20;68.90;;;;;;2462740;54;21021;-75
2023/03/09 09:33:36;;;;;;;6.03;1.00;;;14.20;69.00;;;;;;2285403;56;20934;-76
2023/03/09 09:36:09;;;;;;;4.20;1.37;;;14.20;69.00;;;;;;2285816;56;20934;-76
2023/03/09 09:38:35;;;;;;;3.25;0.90;;;14.20;69.60;;;;;;2285753;56;20930;-75
2023/03/09 09:42:46;;;;;;;4.28;1.12;;;14.20;69.00;;;;;;2376799;54;21471;-76
2023/03/09 09:45:29;;;;;;;6.03;1.20;;;14.30;68.00;;;;;;2362638;54;21325;-75
2023/03/09 09:47:55;;;;;;;7.72;1.20;;;14.30;68.80;;;;;;2486454;54;20994;-75
2023/03/09 09:50:39;;;;;;;5.25;1.12;;;14.40;69.20;;;;;;2285866;55;22225;-75
2023/03/09 09:56:05;;;;;;;6.00;1.20;;;14.40;69.10;;;;;;2268061;56;21023;-76
2023/03/09 09:58:44;;;;;;;4.68;1.17;;;14.40;69.10;;;;;;2308438;56;20969;-77
2023/03/09 10:03:55;;;;;;;3.95;0.95;;;14.50;68.80;;;;;;2512087;54;1898503;-75
2023/03/09 10:06:23;;;;;;;6.50;1.10;;;14.50;69.30;;;;;;2322785;54;21304;-74
2023/03/09 10:09:14;;;;;;;4.22;1.05;;;14.70;68.90;;;;;;2338790;54;20945;-74
2023/03/09 10:11:48;;;;;;;5.47;1.10;;;14.70;68.00;;;;;;2391877;54;21386;-76
2023/03/09 10:14:43;;;;;;;4.20;1.10;;;14.70;68.60;;;;;;2505175;54;21441;-74
2023/03/09 10:17:16;;;;;;;5.68;1.65;;;14.70;68.30;;;;;;2307867;56;20941;-74
2023/03/09 10:19:43;;;;;;;5.72;1.80;;;14.80;68.90;;;;;;2307456;55;21053;-75
2023/03/09 10:22:21;;;;;;;3.92;1.10;;;14.70;69.00;;;;;;2515454;54;20910;-74
2023/03/09 10:24:50;;;;;;;6.82;1.80;;;14.80;68.70;;;;;;2307423;55;21005;-74
2023/03/09 10:27:35;;;;;;;4.62;1.23;;;14.80;68.90;;;;;;2546472;54;21279;-76
2023/03/09 10:31:34;;;;;;;5.15;1.00;;;14.80;68.00;;;;;;2307528;56;20933;-74
2023/03/09 10:34:16;;;;;;;5.30;1.02;;;14.90;67.30;;;;;;2360478;54;20997;-76
2023/03/09 10:36:52;;;;;;;5.85;1.20;;;14.90;67.90;;;;;;2307079;56;21009;-75
2023/03/09 10:39:19;;;;;;;4.78;1.10;;;14.90;68.30;;;;;;2307742;55;20953;-74
2023/03/09 10:41:45;;;;;;;4.72;1.10;;;14.90;68.40;;;;;;2307402;56;21048;-75
2023/03/09 10:44:15;;;;;;;4.40;1.37;;;14.90;69.20;;;;;;2307045;56;21462;-75
2023/03/09 10:46:58;;;;;;;5.32;1.00;;;15.00;68.40;;;;;;2307320;55;21005;-75
2023/03/09 10:49:26;;;;;;;4.68;1.20;;;15.00;67.60;;;;;;2302565;55;21057;-75
2023/03/09 10:52:00;;;;;;;7.28;1.50;;;15.00;68.30;;;;;;2293776;55;21005;-74
2023/03/09 10:54:30;;;;;;;4.35;1.33;;;15.10;68.10;;;;;;2546786;54;21375;-75
2023/03/09 10:56:57;;;;;;;6.70;1.17;;;15.10;68.10;;;;;;2321409;54;20996;-75
2023/03/09 10:59:24;;;;;;;3.85;1.15;;;15.10;68.20;;;;;;2366858;54;20997;-76
2023/03/09 11:01:52;;;;;;;4.32;1.12;;;15.10;67.90;;;;;;2307052;55;20973;-77
2023/03/09 11:04:32;;;;;;;4.70;1.12;;;15.10;67.90;;;;;;2335740;54;20914;-76
2023/03/09 11:07:00;;;;;;;5.28;1.33;;;15.10;67.60;;;;;;2317744;54;21052;-75
2023/03/09 11:10:20;;;;;;;5.82;1.40;;;15.20;68.40;;;;;;2307719;56;21729;-75
2023/03/09 11:12:46;;;;;;;6.87;1.50;;;15.20;67.00;;;;;;2307190;55;20921;-75
2023/03/09 11:16:12;;;;;;;5.43;1.30;;;15.30;68.70;;;;;;2307532;56;21045;-76
2023/03/09 11:18:39;;;;;;;4.68;1.25;;;15.40;67.60;;;;;;2410495;54;20974;-75
2023/03/09 11:21:05;;;;;;;4.65;1.10;;;15.40;69.10;;;;;;2307789;54;20957;-75
2023/03/09 11:23:41;;;;;;;6.82;1.20;;;15.40;68.80;;;;;;2366350;54;20992;-75
2023/03/09 11:26:23;;;;;;;5.07;1.40;;;15.50;68.50;;;;;;2307276;55;21024;-75
2023/03/09 11:29:25;;;;;;;5.68;1.10;;;15.60;68.60;;;;;;2306945;56;20949;-75
2023/03/09 11:31:51;;;;;;;6.90;2.03;;;15.70;68.20;;;;;;2381903;54;21010;-75
2023/03/09 11:34:28;;;;;;;7.15;1.55;;;15.70;69.10;;;;;;2302299;56;21218;-76
2023/03/09 11:37:15;;;;;;;8.55;1.62;;;15.80;69.20;;;;;;2307282;55;21041;-76
2023/03/09 11:39:58;;;;;;;6.40;1.30;;;15.90;69.30;;;;;;2289132;56;20985;-74
2023/03/09 11:43:05;;;;;;;4.40;0.98;;;16.00;68.90;;;;;;2308589;56;21087;-75
2023/03/09 11:45:33;;;;;;;5.80;1.15;;;16.10;69.00;;;;;;2308573;56;21052;-75
2023/03/09 11:51:34;;;;;;;7.35;1.17;;;16.20;70.10;;;;;;2289085;55;21066;-74
2023/03/09 11:54:31;;;;;;;4.95;1.20;;;16.60;68.70;;;;;;2318201;54;20933;-76
2023/03/09 11:56:59;;;;;;;5.75;1.00;;;16.70;69.20;;;;;;2349973;54;20976;-76
2023/03/09 11:59:54;;;;;;;4.10;1.10;;;16.90;70.30;;;;;;2308064;55;20945;-77
2023/03/09 12:04:18;;;;;;;4.20;0.80;;;17.00;69.10;;;;;;2308035;55;21000;-75
2023/03/09 12:07:01;;;;;;;4.97;0.98;;;17.20;69.70;;;;;;2286001;56;20947;-77
2023/03/09 12:09:47;;;;;;;7.40;1.05;;;17.40;68.90;;;;;;2340776;55;21686;-76
2023/03/09 12:14:30;;;;;;;2.65;0.77;;;17.50;68.80;;;;;;2285688;55;20923;-77
2023/03/09 12:17:01;;;;;;;5.32;1.15;;;17.70;67.00;;;;;;2294708;55;21023;-77
2023/03/09 12:19:28;;;;;;;5.78;1.23;;;17.80;68.20;;;;;;2286169;56;20967;-77
2023/03/09 12:22:13;;;;;;;3.62;0.80;;;17.90;67.80;;;;;;2286074;56;20930;-75
2023/03/09 12:24:42;;;;;;;3.33;0.80;;;17.90;66.70;;;;;;2292883;55;20923;-76
2023/03/09 12:27:19;;;;;;;6.75;1.08;;;18.00;68.70;;;;;;2286154;55;20946;-76
2023/03/09 12:30:07;;;;;;;4.62;1.05;;;18.00;67.20;;;;;;2297563;54;20974;-76
2023/03/09 12:32:35;;;;;;;5.25;0.93;;;18.00;67.40;;;;;;2411119;54;20994;-76
2023/03/09 12:35:18;;;;;;;4.00;0.90;;;18.10;67.90;;;;;;2286092;56;21024;-75
2023/03/09 12:38:05;;;;;;;5.97;1.10;;;18.20;68.10;;;;;;2520003;55;20974;-76
2023/03/09 12:40:36;;;;;;;6.07;1.20;;;18.20;67.30;;;;;;2286339;56;21815;-75
2023/03/09 12:45:00;;;;;;;3.53;1.05;;;18.30;68.00;;;;;;2286300;55;20939;-75
2023/03/09 12:47:47;;;;;;;4.12;0.90;;;18.30;65.60;;;;;;2286184;56;20938;-74
2023/03/09 12:51:19;;;;;;;3.97;0.73;;;18.40;66.30;;;;;;2285764;55;20959;-74
2023/03/09 12:54:04;;;;;;;4.45;1.17;;;18.40;64.80;;;;;;2307699;55;21485;-74
2023/03/09 12:56:33;;;;;;;7.28;1.37;;;18.40;64.50;;;;;;2346748;54;21398;-74
2023/03/09 12:58:59;;;;;;;3.10;1.05;;;18.30;65.60;;;;;;2285677;55;20939;-75
2023/03/09 13:01:31;;;;;;;5.87;1.20;;;18.30;65.60;;;;;;2292649;54;20945;-75
2023/03/09 13:04:40;;;;;;;5.07;0.82;;;18.30;65.30;;;;;;2286243;55;21002;-76
2023/03/09 13:07:16;;;;;;;5.62;1.05;;;18.30;64.10;;;;;;2295043;54;21420;-75
2023/03/09 13:09:42;;;;;;;8.10;1.50;;;18.30;65.20;;;;;;2285879;55;21278;-75
2023/03/09 13:12:31;;;;;;;6.97;1.42;;;18.30;66.10;;;;;;2293562;54;25883;-76
2023/03/09 13:15:05;;;;;;;5.80;1.75;;;18.30;65.10;;;;;;2311571;54;20988;-74
2023/03/09 13:17:37;;;;;;;8.07;2.58;;;18.40;66.10;;;;;;2286161;55;20923;-74
2023/03/09 13:20:18;;;;;;;6.97;2.10;;;18.30;66.10;;;;;;2285453;56;21041;-75
2023/03/09 13:22:44;;;;;;;5.22;1.35;;;18.40;65.00;;;;;;2383512;54;20979;-75